createdAt,value
2018-09-01T00:02:23.921Z,20.03
2018-09-01T00:04:52.568Z,20.87
2018-09-01T00:07:21.160Z,20.00
2018-09-01T00:09:49.738Z,20.40
2018-09-01T00:12:18.307Z,21.27
2018-09-01T00:14:46.787Z,20.40
2018-09-01T00:17:20.813Z,19.57
2018-09-01T00:19:51.674Z,20.57
2018-09-01T00:22:21.113Z,19.77
2018-09-01T00:24:49.830Z,20.80
2018-09-01T00:27:18.338Z,20.20
2018-09-01T00:29:47.019Z,20.27
2018-09-01T00:32:18.085Z,21.97
2018-09-01T00:34:46.776Z,22.93
2018-09-01T00:37:19.884Z,22.50
2018-09-01T00:39:48.782Z,23.90
2018-09-01T00:42:17.612Z,21.70
2018-09-01T00:44:46.330Z,21.80
2018-09-01T00:47:15.354Z,22.13
2018-09-01T00:49:43.972Z,23.07
2018-09-01T00:52:12.556Z,22.23
2018-09-01T00:54:41.160Z,21.87
2018-09-01T00:57:10.066Z,23.10
2018-09-01T00:59:39.037Z,21.60
2018-09-01T01:02:07.905Z,21.63
2018-09-01T01:04:46.627Z,20.70
2018-09-01T01:07:15.618Z,23.90
2018-09-01T01:09:45.712Z,23.40
2018-09-01T01:12:14.508Z,22.20
2018-09-01T01:14:43.448Z,22.50
2018-09-01T01:17:12.174Z,23.00
2018-09-01T01:19:41.955Z,22.53
2018-09-01T01:22:10.571Z,23.07
2018-09-01T01:24:39.128Z,23.77
2018-09-01T01:27:07.701Z,24.87
2018-09-01T01:29:36.478Z,23.30
2018-09-01T01:32:05.128Z,24.63
2018-09-01T01:34:33.691Z,23.20
2018-09-01T01:37:02.308Z,22.13
2018-09-01T01:39:30.870Z,24.17
2018-09-01T01:41:59.419Z,24.57
2018-09-01T01:44:27.916Z,23.13
2018-09-01T01:46:56.517Z,21.80
2018-09-01T01:49:25.082Z,23.57
2018-09-01T01:51:53.565Z,23.60
2018-09-01T01:54:22.130Z,23.93
2018-09-01T01:56:50.719Z,24.03
2018-09-01T01:59:19.348Z,25.30
2018-09-01T02:04:40.443Z,23.33
2018-09-01T02:07:09.008Z,25.63
2018-09-01T02:09:37.443Z,24.90
2018-09-01T02:12:06.153Z,25.97
2018-09-01T02:14:34.681Z,24.60
2018-09-01T02:17:03.585Z,25.60
2018-09-01T02:19:31.987Z,26.07
2018-09-01T02:22:00.566Z,26.03
2018-09-01T02:24:29.457Z,27.30
2018-09-01T02:26:57.989Z,26.70
2018-09-01T02:29:26.439Z,29.07
2018-09-01T02:31:55.005Z,27.70
2018-09-01T02:34:23.911Z,28.53
2018-09-01T02:36:52.617Z,30.37
2018-09-01T02:39:21.155Z,29.80
2018-09-01T02:41:49.640Z,34.43
2018-09-01T02:44:31.556Z,30.90
2018-09-01T02:47:00.168Z,32.33
2018-09-01T02:49:28.712Z,32.30
2018-09-01T02:51:57.259Z,33.00
2018-09-01T02:54:25.751Z,33.90
2018-09-01T02:56:54.277Z,32.97
2018-09-01T02:59:22.801Z,32.57
2018-09-01T03:01:51.613Z,33.40
2018-09-01T03:04:20.291Z,30.27
2018-09-01T03:06:54.204Z,31.77
2018-09-01T03:09:23.395Z,29.60
2018-09-01T03:11:52.606Z,31.07
2018-09-01T03:14:21.986Z,29.67
2018-09-01T03:16:51.065Z,28.47
2018-09-01T03:19:19.633Z,30.97
2018-09-01T03:21:48.285Z,30.63
2018-09-01T03:24:16.813Z,29.80
2018-09-01T03:26:45.285Z,31.87
2018-09-01T03:29:14.017Z,30.03
2018-09-01T03:31:42.616Z,30.90
2018-09-01T03:34:11.754Z,31.33
2018-09-01T03:36:40.338Z,32.10
2018-09-01T03:39:09.370Z,31.10
2018-09-01T03:41:38.631Z,32.07
2018-09-01T03:44:07.415Z,32.07
2018-09-01T03:46:36.001Z,32.03
2018-09-01T03:49:06.245Z,32.53
2018-09-01T03:51:34.872Z,32.83
2018-09-01T03:54:03.629Z,32.10
2018-09-01T03:56:32.298Z,31.70
2018-09-01T03:59:01.041Z,34.10
2018-09-01T04:01:29.724Z,30.53
2018-09-01T04:03:58.304Z,32.83
2018-09-01T04:06:28.845Z,31.90
2018-09-01T04:08:57.367Z,32.00
2018-09-01T04:11:25.951Z,31.40
2018-09-01T04:13:54.485Z,34.63
2018-09-01T04:16:23.011Z,31.60
2018-09-01T04:18:51.538Z,32.67
2018-09-01T04:21:20.662Z,32.97
2018-09-01T04:23:49.187Z,33.20
2018-09-01T04:26:17.792Z,31.50
2018-09-01T04:28:46.434Z,30.97
2018-09-01T04:31:15.025Z,31.27
2018-09-01T04:33:43.506Z,32.27
2018-09-01T04:36:12.105Z,31.23
2018-09-01T04:38:40.686Z,32.37
2018-09-01T04:41:09.278Z,29.43
2018-09-01T04:43:37.883Z,29.77
2018-09-01T04:46:06.550Z,29.37
2018-09-01T04:48:35.083Z,29.30
2018-09-01T04:51:03.617Z,30.37
2018-09-01T04:53:32.061Z,30.30
2018-09-01T04:56:00.569Z,29.20
2018-09-01T04:58:29.161Z,30.83
2018-09-01T05:00:57.988Z,31.07
2018-09-01T05:03:26.622Z,29.27
2018-09-01T05:05:55.260Z,30.13
2018-09-01T05:08:23.979Z,33.87
2018-09-01T05:10:52.528Z,35.67
2018-09-01T05:13:21.041Z,36.20
2018-09-01T05:15:49.794Z,39.27
2018-09-01T05:18:18.413Z,40.73
2018-09-01T05:20:47.060Z,38.90
2018-09-01T05:23:15.576Z,40.77
2018-09-01T05:25:44.161Z,40.43
2018-09-01T05:28:12.873Z,39.97
2018-09-01T05:30:41.347Z,41.77
2018-09-01T05:33:09.876Z,41.60
2018-09-01T05:35:38.309Z,39.97
2018-09-01T05:38:06.764Z,38.73
2018-09-01T05:40:35.235Z,37.60
2018-09-01T05:43:03.706Z,39.40
2018-09-01T05:45:32.280Z,35.90
2018-09-01T05:48:00.770Z,35.07
2018-09-01T05:50:29.265Z,36.37
2018-09-01T05:52:57.764Z,34.30
2018-09-01T05:55:26.227Z,35.30
2018-09-01T05:57:54.773Z,34.37
2018-09-01T06:00:23.967Z,32.93
2018-09-01T06:02:53.590Z,35.07
2018-09-01T06:05:22.283Z,35.80
2018-09-01T06:07:50.881Z,33.70
2018-09-01T06:10:19.450Z,34.87
2018-09-01T06:12:48.050Z,35.70
2018-09-01T06:15:16.569Z,34.60
2018-09-01T06:17:45.183Z,33.60
2018-09-01T06:20:13.627Z,34.70
2018-09-01T06:22:42.165Z,33.57
2018-09-01T06:25:10.721Z,35.00
2018-09-01T06:27:51.401Z,33.70
2018-09-01T06:30:29.773Z,33.60
2018-09-01T06:32:58.647Z,36.03
2018-09-01T06:35:27.316Z,33.17
2018-09-01T06:37:55.843Z,36.73
2018-09-01T06:40:24.386Z,35.30
2018-09-01T06:42:52.909Z,35.27
2018-09-01T06:45:21.362Z,33.70
2018-09-01T06:47:49.874Z,32.23
2018-09-01T06:50:18.336Z,33.27
2018-09-01T06:52:46.732Z,32.57
2018-09-01T06:55:15.269Z,34.50
2018-09-01T06:57:43.749Z,32.43
2018-09-01T07:00:12.302Z,30.30
2018-09-01T07:02:40.893Z,31.60
2018-09-01T07:05:09.358Z,30.97
2018-09-01T07:07:37.898Z,32.47
2018-09-01T07:10:06.472Z,28.83
2018-09-01T07:12:34.955Z,29.37
2018-09-01T07:15:03.665Z,28.27
2018-09-01T07:17:32.130Z,26.40
2018-09-01T07:20:17.923Z,27.00
2018-09-01T07:22:46.558Z,25.70
2018-09-01T07:25:15.143Z,26.30
2018-09-01T07:27:43.828Z,24.97
2018-09-01T07:30:12.549Z,23.13
2018-09-01T07:32:48.534Z,21.43
2018-09-01T07:35:17.044Z,22.50
2018-09-01T07:37:45.799Z,20.57
2018-09-01T07:40:14.402Z,22.37
2018-09-01T07:42:42.926Z,22.23
2018-09-01T07:45:11.577Z,21.50
2018-09-01T07:47:40.154Z,20.87
2018-09-01T07:50:08.842Z,21.07
2018-09-01T07:52:37.288Z,19.50
2018-09-01T07:55:06.079Z,20.60
2018-09-01T07:57:41.591Z,20.60
2018-09-01T08:00:09.914Z,19.47
2018-09-01T08:02:38.173Z,19.20
2018-09-01T08:05:06.992Z,17.33
2018-09-01T08:07:35.409Z,18.53
2018-09-01T08:10:03.679Z,17.47
2018-09-01T08:12:31.949Z,19.77
2018-09-01T08:15:00.271Z,18.47
2018-09-01T08:17:28.630Z,17.30
2018-09-01T08:19:56.887Z,18.50
2018-09-01T08:22:25.263Z,19.90
2018-09-01T08:24:53.619Z,20.10
2018-09-01T08:27:21.920Z,18.70
2018-09-01T08:29:50.203Z,20.70
2018-09-01T08:32:18.487Z,18.93
2018-09-01T08:34:46.835Z,16.50
2018-09-01T08:37:15.182Z,16.93
2018-09-01T08:39:43.485Z,17.63
2018-09-01T08:42:11.799Z,17.80
2018-09-01T08:44:40.118Z,17.30
2018-09-01T08:47:08.420Z,16.10
2018-09-01T08:49:36.665Z,15.83
2018-09-01T08:52:04.933Z,15.00
2018-09-01T08:54:33.247Z,16.30
2018-09-01T08:57:01.595Z,16.77
2018-09-01T08:59:29.845Z,15.20
2018-09-01T09:01:58.195Z,14.73
2018-09-01T09:04:26.453Z,15.63
2018-09-01T09:06:54.701Z,14.63
2018-09-01T09:09:23.241Z,14.83
2018-09-01T09:11:51.624Z,16.23
2018-09-01T09:14:19.869Z,16.00
2018-09-01T09:16:48.245Z,15.70
2018-09-01T09:19:16.622Z,15.43
2018-09-01T09:21:44.954Z,13.93
2018-09-01T09:24:13.328Z,15.47
2018-09-01T09:26:41.716Z,13.83
2018-09-01T09:29:09.930Z,14.13
2018-09-01T09:31:38.202Z,14.67
2018-09-01T09:34:06.477Z,13.20
2018-09-01T09:36:34.737Z,12.63
2018-09-01T09:39:04.574Z,12.77
2018-09-01T09:41:32.838Z,12.43
2018-09-01T09:44:01.120Z,12.80
2018-09-01T09:46:29.424Z,13.27
2018-09-01T09:48:57.714Z,12.17
2018-09-01T09:51:26.005Z,13.67
2018-09-01T09:53:54.261Z,13.50
2018-09-01T09:56:22.571Z,13.37
2018-09-01T09:58:50.877Z,12.77
2018-09-01T10:01:24.568Z,12.50
2018-09-01T10:03:53.101Z,12.73
2018-09-01T10:06:21.396Z,13.13
2018-09-01T10:08:49.694Z,12.00
2018-09-01T10:11:17.984Z,11.40
2018-09-01T10:13:46.245Z,12.17
2018-09-01T10:16:14.570Z,11.53
2018-09-01T10:18:42.880Z,12.10
2018-09-01T10:21:11.143Z,11.70
2018-09-01T10:23:39.403Z,12.80
2018-09-01T10:26:11.070Z,12.40
2018-09-01T10:28:39.323Z,11.77
2018-09-01T10:31:07.617Z,10.70
2018-09-01T10:33:35.914Z,11.40
2018-09-01T10:36:04.253Z,12.23
2018-09-01T10:38:32.694Z,11.57
2018-09-01T10:41:01.000Z,10.70
2018-09-01T10:43:29.361Z,10.80
2018-09-01T10:45:57.730Z,11.00
2018-09-01T10:48:25.986Z,10.57
2018-09-01T10:50:54.267Z,11.17
2018-09-01T10:53:22.553Z,11.27
2018-09-01T10:55:50.783Z,10.87
2018-09-01T10:58:19.172Z,11.87
2018-09-01T11:00:47.511Z,10.40
2018-09-01T11:03:15.832Z,11.90
2018-09-01T11:05:44.201Z,12.13
2018-09-01T11:08:12.466Z,10.97
2018-09-01T11:10:40.717Z,10.07
2018-09-01T11:13:09.013Z,10.57
2018-09-01T11:15:37.314Z,11.10
2018-09-01T11:18:05.671Z,11.50
2018-09-01T11:20:33.955Z,12.50
2018-09-01T11:23:02.296Z,11.50
2018-09-01T11:25:30.650Z,11.87
2018-09-01T11:27:59.003Z,10.70
2018-09-01T11:30:27.270Z,11.50
2018-09-01T11:32:55.548Z,12.20
2018-09-01T11:35:23.818Z,12.13
2018-09-01T11:37:52.225Z,11.00
2018-09-01T11:40:20.537Z,11.03
2018-09-01T11:42:48.892Z,10.80
2018-09-01T11:45:17.053Z,11.47
2018-09-01T11:47:45.384Z,11.67
2018-09-01T11:50:13.669Z,10.83
2018-09-01T11:52:41.969Z,10.00
2018-09-01T11:55:10.220Z,9.20
2018-09-01T11:57:38.461Z,10.60
2018-09-01T12:00:06.925Z,10.83
2018-09-01T12:02:35.262Z,10.80
2018-09-01T12:05:03.602Z,10.47
2018-09-01T12:07:31.942Z,11.50
2018-09-01T12:10:00.285Z,10.50
2018-09-01T12:12:28.549Z,10.83
2018-09-01T12:14:56.951Z,9.63
2018-09-01T12:17:25.363Z,9.40
2018-09-01T12:19:53.686Z,10.20
2018-09-01T12:22:22.089Z,11.40
2018-09-01T12:24:50.268Z,9.90
2018-09-01T12:27:18.510Z,9.47
2018-09-01T12:29:46.820Z,9.57
2018-09-01T12:32:15.155Z,10.07
2018-09-01T12:34:43.473Z,9.80
2018-09-01T12:37:11.746Z,9.80
2018-09-01T12:39:40.054Z,10.00
2018-09-01T12:42:08.435Z,10.27
2018-09-01T12:44:36.663Z,9.60
2018-09-01T12:47:04.954Z,9.40
2018-09-01T12:49:33.271Z,9.10
2018-09-01T12:52:01.602Z,10.23
2018-09-01T12:54:29.919Z,9.20
2018-09-01T12:56:58.225Z,10.10
2018-09-01T12:59:26.739Z,9.40
2018-09-01T13:01:55.070Z,9.27
2018-09-01T13:04:23.343Z,8.80
2018-09-01T13:06:51.603Z,10.07
2018-09-01T13:09:19.943Z,9.80
2018-09-01T13:11:48.209Z,8.37
2018-09-01T13:14:16.553Z,9.20
2018-09-01T13:16:44.887Z,9.00
2018-09-01T13:19:13.089Z,8.60
2018-09-01T13:21:41.389Z,9.40
2018-09-01T13:24:09.645Z,9.20
2018-09-01T13:26:38.010Z,9.10
2018-09-01T13:29:06.258Z,9.70
2018-09-01T13:31:34.552Z,8.87
2018-09-01T13:34:03.052Z,9.33
2018-09-01T13:36:31.371Z,9.47
2018-09-01T13:38:59.710Z,8.80
2018-09-01T13:41:27.978Z,8.73
2018-09-01T13:43:56.226Z,9.27
2018-09-01T13:46:24.591Z,9.03
2018-09-01T13:48:52.856Z,9.00
2018-09-01T13:51:21.176Z,8.90
2018-09-01T13:53:49.517Z,9.37
2018-09-01T13:56:17.732Z,8.33
2018-09-01T13:58:46.083Z,7.90
2018-09-01T14:01:14.420Z,9.30
2018-09-01T14:03:42.710Z,8.50
2018-09-01T14:06:11.091Z,8.90
2018-09-01T14:08:39.351Z,9.40
2018-09-01T14:11:14.159Z,8.33
2018-09-01T14:13:42.478Z,8.70
2018-09-01T14:16:10.827Z,10.70
2018-09-01T14:18:39.116Z,8.80
2018-09-01T14:21:07.429Z,9.57
2018-09-01T14:23:35.723Z,9.60
2018-09-01T14:26:04.021Z,8.87
2018-09-01T14:28:32.340Z,9.57
2018-09-01T14:31:00.654Z,9.30
2018-09-01T14:33:28.939Z,7.97
2018-09-01T14:35:57.341Z,8.67
2018-09-01T14:38:25.720Z,7.20
2018-09-01T14:40:53.942Z,8.33
2018-09-01T14:43:22.234Z,8.50
2018-09-01T14:45:50.538Z,8.03
2018-09-01T14:48:18.881Z,7.43
2018-09-01T14:50:47.064Z,7.77
2018-09-01T14:53:15.325Z,7.07
2018-09-01T14:55:43.526Z,7.50
2018-09-01T14:58:11.824Z,7.57
2018-09-01T15:00:40.047Z,7.80
2018-09-01T15:03:08.332Z,8.00
2018-09-01T15:05:36.641Z,7.20
2018-09-01T15:08:04.911Z,7.00
2018-09-01T15:10:33.207Z,6.70
2018-09-01T15:13:01.582Z,7.43
2018-09-01T15:15:29.934Z,6.73
2018-09-01T15:17:58.321Z,6.90
2018-09-01T15:20:26.633Z,6.63
2018-09-01T15:22:54.965Z,7.47
2018-09-01T15:25:23.203Z,6.60
2018-09-01T15:27:51.505Z,7.00
2018-09-01T15:30:19.903Z,6.43
2018-09-01T15:32:48.114Z,6.63
2018-09-01T15:35:16.518Z,8.13
2018-09-01T15:37:44.776Z,7.00
2018-09-01T15:40:13.051Z,6.63
2018-09-01T15:42:41.336Z,8.13
2018-09-01T15:45:09.605Z,7.13
2018-09-01T15:47:37.859Z,7.30
2018-09-01T15:50:06.196Z,6.90
2018-09-01T15:52:34.530Z,7.57
2018-09-01T15:55:02.792Z,7.63
2018-09-01T15:57:31.010Z,7.50
2018-09-01T15:59:59.305Z,7.50
2018-09-01T16:02:27.590Z,7.80
2018-09-01T16:04:55.981Z,6.97
2018-09-01T16:07:24.295Z,7.30
2018-09-01T16:09:52.663Z,7.50
2018-09-01T16:12:20.939Z,7.60
2018-09-01T16:14:49.227Z,7.20
2018-09-01T16:17:17.561Z,6.70
2018-09-01T16:19:45.909Z,7.20
2018-09-01T16:22:14.499Z,6.83
2018-09-01T16:24:42.795Z,7.00
2018-09-01T16:27:11.068Z,6.40
2018-09-01T16:29:39.336Z,6.97
2018-09-01T16:32:07.725Z,7.10
2018-09-01T16:34:36.215Z,7.33
2018-09-01T16:37:04.660Z,6.00
2018-09-01T16:39:33.098Z,6.07
2018-09-01T16:42:01.379Z,5.63
2018-09-01T16:44:30.607Z,6.77
2018-09-01T16:46:58.939Z,6.43
2018-09-01T16:49:27.269Z,6.00
2018-09-01T16:51:55.554Z,6.07
2018-09-01T16:54:23.933Z,6.73
2018-09-01T16:56:52.229Z,5.60
2018-09-01T16:59:20.521Z,6.53
2018-09-01T17:01:48.907Z,7.33
2018-09-01T17:04:17.202Z,6.70
2018-09-01T17:06:45.514Z,6.90
2018-09-01T17:09:13.922Z,6.23
2018-09-01T17:11:42.244Z,6.23
2018-09-01T17:14:10.585Z,7.10
2018-09-01T17:16:38.864Z,7.07
2018-09-01T17:19:07.158Z,7.60
2018-09-01T17:21:35.467Z,6.23
2018-09-01T17:24:03.739Z,9.23
2018-09-01T17:26:32.061Z,6.50
2018-09-01T17:29:00.337Z,6.70
2018-09-01T17:31:28.568Z,6.33
2018-09-01T17:33:56.922Z,7.83
2018-09-01T17:36:25.255Z,6.67
2018-09-01T17:38:53.535Z,7.50
2018-09-01T17:41:21.822Z,6.90
2018-09-01T17:43:50.098Z,7.40
2018-09-01T17:46:18.454Z,6.67
2018-09-01T17:48:46.739Z,6.70
2018-09-01T17:51:14.991Z,5.60
2018-09-01T17:53:43.378Z,5.00
2018-09-01T17:56:11.677Z,6.40
2018-09-01T17:58:39.962Z,6.20
2018-09-01T18:01:08.290Z,6.27
2018-09-01T18:03:36.592Z,6.53
2018-09-01T18:06:04.928Z,5.50
2018-09-01T18:08:33.218Z,5.93
2018-09-01T18:11:01.423Z,6.10
2018-09-01T18:13:29.718Z,5.60
2018-09-01T18:15:57.986Z,5.80
2018-09-01T18:18:26.483Z,5.70
2018-09-01T18:20:54.732Z,6.20
2018-09-01T18:23:23.010Z,6.37
2018-09-01T18:25:51.317Z,6.73
2018-09-01T18:28:19.571Z,8.00
2018-09-01T18:30:47.866Z,6.63
2018-09-01T18:33:16.177Z,6.27
2018-09-01T18:35:44.506Z,6.40
2018-09-01T18:38:12.700Z,6.30
2018-09-01T18:40:41.018Z,6.77
2018-09-01T18:43:09.319Z,6.63
2018-09-01T18:45:37.663Z,6.50
2018-09-01T18:48:05.938Z,5.97
2018-09-01T18:50:34.243Z,6.17
2018-09-01T18:53:02.572Z,6.67
2018-09-01T18:55:31.122Z,6.37
2018-09-01T18:57:59.461Z,6.00
2018-09-01T19:00:27.710Z,6.67
2018-09-01T19:02:56.084Z,6.40
2018-09-01T19:05:24.417Z,6.10
2018-09-01T19:07:52.788Z,6.10
2018-09-01T19:10:20.993Z,6.80
2018-09-01T19:12:49.303Z,6.40
2018-09-01T19:15:17.639Z,6.33
2018-09-01T19:17:45.930Z,5.90
2018-09-01T19:20:14.241Z,6.40
2018-09-01T19:22:42.577Z,6.93
2018-09-01T19:25:10.884Z,6.10
2018-09-01T19:27:39.169Z,6.07
2018-09-01T19:30:07.576Z,6.40
2018-09-01T19:32:35.878Z,7.30
2018-09-01T19:35:04.228Z,6.70
2018-09-01T19:37:32.606Z,7.00
2018-09-01T19:40:01.022Z,8.93
2018-09-01T19:42:29.281Z,6.87
2018-09-01T19:44:57.596Z,6.30
2018-09-01T19:47:25.862Z,6.90
2018-09-01T19:49:54.116Z,6.80
2018-09-01T19:52:22.462Z,6.20
2018-09-01T19:54:50.827Z,6.10
2018-09-01T19:57:19.120Z,7.03
2018-09-01T19:59:47.419Z,7.03
2018-09-01T20:02:15.782Z,7.60
2018-09-01T20:04:44.167Z,7.53
2018-09-01T20:07:12.414Z,7.37
2018-09-01T20:09:40.703Z,6.90
2018-09-01T20:12:09.024Z,9.27
2018-09-01T20:14:37.276Z,7.90
2018-09-01T20:17:05.557Z,7.93
2018-09-01T20:19:33.806Z,7.80
2018-09-01T20:22:02.099Z,7.70
2018-09-01T20:24:30.480Z,7.40
2018-09-01T20:26:58.776Z,7.27
2018-09-01T20:29:26.976Z,7.80
2018-09-01T20:31:55.396Z,6.90
2018-09-01T20:34:23.526Z,7.30
2018-09-01T20:36:51.778Z,7.20
2018-09-01T20:39:20.042Z,7.50
2018-09-01T20:41:48.403Z,7.30
2018-09-01T20:44:16.732Z,6.93
2018-09-01T20:46:45.010Z,7.13
2018-09-01T20:49:13.277Z,7.10
2018-09-01T20:51:41.596Z,6.30
2018-09-01T20:54:09.930Z,7.03
2018-09-01T20:56:38.182Z,5.97
2018-09-01T20:59:06.523Z,7.20
2018-09-01T21:01:34.794Z,7.70
2018-09-01T21:04:03.078Z,6.00
2018-09-01T21:06:31.411Z,6.77
2018-09-01T21:08:59.826Z,6.97
2018-09-01T21:11:28.080Z,6.73
2018-09-01T21:13:56.285Z,6.07
2018-09-01T21:16:24.596Z,6.47
2018-09-01T21:18:52.910Z,7.47
2018-09-01T21:21:21.293Z,7.20
2018-09-01T21:23:49.506Z,7.07
2018-09-01T21:26:17.834Z,6.97
2018-09-01T21:28:46.100Z,6.90
2018-09-01T21:31:14.361Z,6.80
2018-09-01T21:33:42.669Z,8.57
2018-09-01T21:36:11.151Z,6.70
2018-09-01T21:38:39.466Z,8.10
2018-09-01T21:41:07.805Z,6.60
2018-09-01T21:43:36.094Z,6.87
2018-09-01T21:46:04.357Z,6.80
2018-09-01T21:48:32.693Z,6.83
2018-09-01T21:51:01.164Z,7.30
2018-09-01T21:53:29.393Z,6.17
2018-09-01T21:55:57.770Z,6.50
2018-09-01T21:58:26.084Z,6.47
2018-09-01T22:00:58.630Z,6.90
2018-09-01T22:03:26.908Z,6.27
2018-09-01T22:05:55.191Z,6.47
2018-09-01T22:08:23.479Z,6.97
2018-09-01T22:10:51.718Z,8.10
2018-09-01T22:13:19.965Z,6.97
2018-09-01T22:15:48.216Z,7.70
2018-09-01T22:18:16.567Z,8.00
2018-09-01T22:20:44.852Z,7.40
2018-09-01T22:23:13.186Z,7.40
2018-09-01T22:25:41.482Z,7.37
2018-09-01T22:28:09.759Z,8.07
2018-09-01T22:30:37.996Z,7.40
2018-09-01T22:33:06.294Z,7.57
2018-09-01T22:35:34.616Z,7.43
2018-09-01T22:38:02.850Z,6.60
2018-09-01T22:40:31.164Z,7.00
2018-09-01T22:42:59.445Z,7.43
2018-09-01T22:45:27.781Z,7.30
2018-09-01T22:47:56.051Z,7.77
2018-09-01T22:50:24.381Z,7.90
2018-09-01T22:52:52.685Z,7.40
2018-09-01T22:55:20.938Z,7.27
2018-09-01T22:57:49.178Z,8.03
2018-09-01T23:00:17.428Z,6.80
2018-09-01T23:02:45.670Z,7.63
2018-09-01T23:05:14.031Z,7.43
2018-09-01T23:07:42.324Z,7.43
2018-09-01T23:10:10.648Z,8.27
2018-09-01T23:12:39.076Z,7.20
2018-09-01T23:15:07.313Z,7.87
2018-09-01T23:17:35.642Z,7.50
2018-09-01T23:20:03.926Z,7.13
2018-09-01T23:22:32.224Z,6.73
2018-09-01T23:25:00.583Z,7.23
2018-09-01T23:27:28.991Z,7.37
2018-09-01T23:29:57.353Z,7.07
2018-09-01T23:32:25.651Z,7.90
2018-09-01T23:34:54.008Z,8.43
2018-09-01T23:37:22.296Z,7.93
2018-09-01T23:39:50.566Z,8.20
2018-09-01T23:42:18.782Z,7.83
2018-09-01T23:44:47.038Z,8.17
2018-09-01T23:47:15.390Z,8.27
2018-09-01T23:49:43.676Z,9.30
2018-09-01T23:52:11.981Z,8.30
2018-09-01T23:54:40.251Z,8.00
2018-09-01T23:57:08.519Z,7.30
2018-09-01T23:59:36.910Z,7.03
